createdAt,value
2022-09-03T00:02:16.070Z,7.80
2022-09-03T00:04:51.290Z,7.43
2022-09-03T00:07:22.629Z,7.07
2022-09-03T00:10:00.202Z,8.03
2022-09-03T00:12:29.545Z,7.60
2022-09-03T00:15:09.570Z,7.50
2022-09-03T00:17:44.482Z,7.10
2022-09-03T00:20:17.627Z,6.50
2022-09-03T00:22:48.685Z,7.75
2022-09-03T00:25:21.124Z,6.70
2022-09-03T00:27:55.883Z,7.75
2022-09-03T00:30:24.394Z,7.20
2022-09-03T00:33:01.955Z,6.28
2022-09-03T00:35:47.761Z,7.20
2022-09-03T00:38:15.112Z,6.97
2022-09-03T00:41:06.921Z,6.50
2022-09-03T00:44:12.468Z,7.97
2022-09-03T00:46:48.166Z,6.10
2022-09-03T00:49:29.730Z,7.00
2022-09-03T00:52:14.868Z,7.90
2022-09-03T00:54:50.786Z,6.63
2022-09-03T00:57:42.271Z,7.70
2022-09-03T01:00:12.292Z,7.73
2022-09-03T01:02:47.828Z,7.45
2022-09-03T01:05:35.728Z,7.53
2022-09-03T01:08:03.018Z,7.22
2022-09-03T01:10:36.717Z,7.55
2022-09-03T01:13:12.813Z,7.55
2022-09-03T01:16:23.632Z,7.68
2022-09-03T01:19:01.141Z,7.13
2022-09-03T01:22:07.344Z,8.00
2022-09-03T01:25:01.226Z,8.50
2022-09-03T01:28:10.347Z,8.50
2022-09-03T01:30:53.828Z,8.57
2022-09-03T01:33:31.797Z,8.82
2022-09-03T01:36:16.844Z,8.68
2022-09-03T01:38:59.793Z,7.68
2022-09-03T01:41:53.872Z,8.25
2022-09-03T01:44:52.847Z,8.90
2022-09-03T01:47:36.933Z,8.50
2022-09-03T01:50:09.513Z,8.77
2022-09-03T01:53:11.387Z,8.45
2022-09-03T01:56:09.960Z,8.93
2022-09-03T01:58:56.968Z,8.82
2022-09-03T02:01:32.897Z,8.13
2022-09-03T02:04:00.498Z,9.15
2022-09-03T02:06:32.054Z,8.38
2022-09-03T02:08:58.822Z,9.85
2022-09-03T02:11:25.618Z,8.70
2022-09-03T02:13:57.837Z,8.00
2022-09-03T02:16:31.634Z,8.55
2022-09-03T02:19:01.844Z,9.02
2022-09-03T02:21:34.790Z,9.38
2022-09-03T02:24:03.180Z,9.60
2022-09-03T02:26:29.782Z,9.13
2022-09-03T02:28:57.793Z,9.77
2022-09-03T02:31:24.607Z,8.45
2022-09-03T02:33:51.657Z,9.80
2022-09-03T02:36:27.458Z,10.48
2022-09-03T02:38:54.422Z,9.15
2022-09-03T02:41:21.101Z,9.32
2022-09-03T02:43:59.099Z,10.35
2022-09-03T02:46:41.046Z,10.73
2022-09-03T02:49:08.578Z,10.27
2022-09-03T02:51:37.945Z,10.00
2022-09-03T02:54:05.137Z,9.60
2022-09-03T02:56:32.191Z,10.13
2022-09-03T02:58:58.858Z,11.20
2022-09-03T03:01:26.315Z,9.30
2022-09-03T03:03:53.293Z,9.57
2022-09-03T03:06:20.927Z,10.30
2022-09-03T03:08:49.881Z,9.60
2022-09-03T03:11:18.440Z,10.25
2022-09-03T03:13:48.297Z,10.57
2022-09-03T03:16:16.973Z,10.00
2022-09-03T03:18:46.268Z,9.43
2022-09-03T03:21:15.811Z,9.15
2022-09-03T03:23:42.938Z,10.15
2022-09-03T03:26:13.265Z,9.57
2022-09-03T03:28:40.674Z,10.40
2022-09-03T03:31:12.762Z,9.10
2022-09-03T03:33:40.002Z,10.32
2022-09-03T03:36:09.305Z,9.80
2022-09-03T03:38:36.792Z,9.88
2022-09-03T03:41:21.942Z,9.98
2022-09-03T03:43:52.997Z,9.80
2022-09-03T03:46:19.654Z,9.85
2022-09-03T03:48:48.665Z,9.90
2022-09-03T03:51:15.346Z,9.40
2022-09-03T03:53:42.055Z,9.73
2022-09-03T03:56:12.511Z,9.50
2022-09-03T03:58:44.163Z,9.68
2022-09-03T04:01:14.540Z,9.45
2022-09-03T04:03:41.973Z,10.27
2022-09-03T04:06:09.988Z,10.55
2022-09-03T04:08:39.228Z,10.38
2022-09-03T04:11:09.144Z,9.70
2022-09-03T04:13:38.669Z,11.13
2022-09-03T04:16:14.371Z,9.70
2022-09-03T04:18:41.902Z,10.20
2022-09-03T04:21:11.567Z,10.55
2022-09-03T04:23:40.761Z,11.20
2022-09-03T04:26:08.877Z,11.68
2022-09-03T04:28:36.355Z,11.48
2022-09-03T04:31:07.891Z,10.23
2022-09-03T04:33:38.107Z,10.60
2022-09-03T04:36:12.471Z,10.68
2022-09-03T04:38:42.140Z,11.32
2022-09-03T04:41:11.764Z,10.35
2022-09-03T04:43:38.869Z,10.25
2022-09-03T04:46:12.952Z,10.23
2022-09-03T04:48:47.483Z,10.27
2022-09-03T04:51:16.281Z,11.63
2022-09-03T04:53:45.965Z,10.00
2022-09-03T04:56:20.916Z,11.30
2022-09-03T04:58:49.306Z,10.55
2022-09-03T05:01:20.312Z,10.10
2022-09-03T05:03:48.019Z,9.35
2022-09-03T05:06:17.102Z,9.77
2022-09-03T05:08:48.308Z,9.27
2022-09-03T05:11:16.429Z,9.95
2022-09-03T05:13:43.722Z,9.57
2022-09-03T05:16:11.778Z,9.73
2022-09-03T05:18:38.661Z,9.20
2022-09-03T05:21:07.753Z,8.23
2022-09-03T05:23:40.031Z,9.00
2022-09-03T05:26:13.342Z,8.60
2022-09-03T05:28:41.469Z,7.88
2022-09-03T05:31:18.634Z,7.80
2022-09-03T05:33:47.889Z,8.52
2022-09-03T05:36:22.386Z,8.23
2022-09-03T05:38:49.863Z,8.68
2022-09-03T05:41:19.192Z,8.10
2022-09-03T05:43:52.031Z,8.80
2022-09-03T05:46:18.693Z,8.25
2022-09-03T05:48:45.496Z,9.20
2022-09-03T05:51:18.115Z,8.40
2022-09-03T05:53:46.993Z,8.30
2022-09-03T05:56:22.098Z,8.02
2022-09-03T05:58:51.651Z,7.70
2022-09-03T06:01:27.176Z,8.45
2022-09-03T06:04:08.243Z,7.97
2022-09-03T06:06:37.132Z,8.25
2022-09-03T06:09:10.704Z,7.97
2022-09-03T06:11:39.087Z,7.70
2022-09-03T06:14:09.390Z,8.23
2022-09-03T06:16:39.833Z,7.97
2022-09-03T06:19:09.549Z,8.13
2022-09-03T06:21:37.925Z,7.22
2022-09-03T06:24:04.690Z,6.95
2022-09-03T06:26:31.328Z,6.43
2022-09-03T06:28:58.187Z,7.88
2022-09-03T06:31:25.558Z,6.55
2022-09-03T06:33:54.746Z,7.18
2022-09-03T06:36:23.127Z,6.88
2022-09-03T06:38:53.389Z,6.68
2022-09-03T06:41:25.109Z,6.55
2022-09-03T06:43:54.329Z,6.65
2022-09-03T06:46:24.032Z,6.93
2022-09-03T06:48:51.791Z,7.20
2022-09-03T06:51:20.891Z,7.43
2022-09-03T06:54:23.199Z,7.20
2022-09-03T06:56:49.841Z,7.78
2022-09-03T06:59:16.756Z,7.57
2022-09-03T07:01:46.224Z,7.05
2022-09-03T07:04:16.701Z,7.32
2022-09-03T07:06:46.675Z,6.90
2022-09-03T07:09:15.470Z,7.18
2022-09-03T07:11:48.126Z,7.25
2022-09-03T07:14:17.582Z,6.15
2022-09-03T07:16:44.396Z,6.60
2022-09-03T07:19:13.385Z,6.05
2022-09-03T07:21:48.816Z,6.28
2022-09-03T07:24:15.724Z,6.55
2022-09-03T07:26:49.402Z,6.68
2022-09-03T07:29:16.606Z,6.75
2022-09-03T07:31:44.453Z,6.82
2022-09-03T07:34:13.745Z,6.57
2022-09-03T07:36:51.826Z,6.55
2022-09-03T07:39:19.863Z,6.82
2022-09-03T07:41:47.546Z,5.95
2022-09-03T07:44:19.521Z,6.07
2022-09-03T07:46:48.064Z,5.55
2022-09-03T07:49:15.019Z,6.25
2022-09-03T07:51:41.844Z,5.65
2022-09-03T07:54:11.374Z,5.90
2022-09-03T07:56:40.176Z,5.07
2022-09-03T07:59:07.535Z,5.53
2022-09-03T08:01:35.530Z,6.25
2022-09-03T08:04:04.250Z,5.90
2022-09-03T08:06:32.890Z,5.45
2022-09-03T08:09:05.322Z,5.50
2022-09-03T08:11:35.152Z,6.13
2022-09-03T08:14:06.740Z,5.63
2022-09-03T08:16:48.669Z,5.43
2022-09-03T08:19:18.262Z,5.00
2022-09-03T08:21:45.180Z,4.75
2022-09-03T08:24:12.620Z,4.90
2022-09-03T08:26:41.961Z,5.75
2022-09-03T08:29:09.319Z,4.30
2022-09-03T08:31:36.815Z,4.68
2022-09-03T08:34:07.248Z,4.55
2022-09-03T08:36:38.661Z,6.10
2022-09-03T08:39:11.101Z,6.30
2022-09-03T08:42:03.388Z,5.10
2022-09-03T08:47:31.643Z,4.97
2022-09-03T08:50:19.432Z,5.05
2022-09-03T08:53:01.923Z,4.68
2022-09-03T08:55:30.495Z,4.32
2022-09-03T08:58:06.391Z,4.03
2022-09-03T09:01:04.134Z,4.88
2022-09-03T09:03:38.074Z,3.95
2022-09-03T09:06:09.208Z,5.32
2022-09-03T09:08:47.280Z,4.15
2022-09-03T09:11:39.235Z,4.57
2022-09-03T09:14:18.850Z,3.80
2022-09-03T09:16:51.521Z,4.30
2022-09-03T09:19:36.532Z,4.55
2022-09-03T09:22:09.327Z,4.00
2022-09-03T09:24:43.632Z,4.43
2022-09-03T09:27:17.067Z,3.75
2022-09-03T09:29:48.052Z,4.00
2022-09-03T09:32:17.504Z,4.18
2022-09-03T09:34:51.307Z,4.00
2022-09-03T09:37:19.090Z,3.60
2022-09-03T09:39:58.175Z,4.72
2022-09-03T09:42:25.144Z,5.28
2022-09-03T09:44:52.231Z,4.60
2022-09-03T09:47:26.991Z,4.10
2022-09-03T09:49:55.080Z,3.70
2022-09-03T09:52:25.862Z,4.13
2022-09-03T09:54:57.239Z,4.32
2022-09-03T09:57:25.827Z,4.65
2022-09-03T10:00:14.400Z,4.15
2022-09-03T10:02:48.745Z,5.10
2022-09-03T10:05:27.744Z,4.45
2022-09-03T10:08:19.048Z,5.07
2022-09-03T10:10:49.784Z,5.10
2022-09-03T10:13:25.107Z,4.50
2022-09-03T10:15:58.577Z,4.03
2022-09-03T10:18:55.058Z,3.90
2022-09-03T10:21:27.813Z,4.35
2022-09-03T10:23:59.618Z,4.30
2022-09-03T10:26:33.072Z,4.85
2022-09-03T10:29:02.646Z,4.45
2022-09-03T10:31:37.928Z,3.70
2022-09-03T10:34:18.765Z,4.50
2022-09-03T10:37:17.402Z,4.43
2022-09-03T10:39:59.223Z,4.43
2022-09-03T10:42:25.811Z,4.30
2022-09-03T10:45:04.269Z,4.13
2022-09-03T10:48:07.586Z,3.67
2022-09-03T10:50:49.802Z,3.67
2022-09-03T10:53:41.213Z,3.45
2022-09-03T10:56:15.336Z,3.97
2022-09-03T10:59:02.943Z,3.53
2022-09-03T11:01:35.632Z,3.47
2022-09-03T11:04:26.897Z,4.63
2022-09-03T11:07:06.087Z,4.18
2022-09-03T11:09:41.081Z,4.32
2022-09-03T11:12:31.355Z,4.55
2022-09-03T11:15:10.241Z,3.78
2022-09-03T11:17:42.843Z,3.55
2022-09-03T11:20:26.436Z,4.20
2022-09-03T11:23:03.151Z,4.85
2022-09-03T11:25:41.981Z,4.43
2022-09-03T11:28:26.919Z,4.65
2022-09-03T11:31:13.826Z,4.90
2022-09-03T11:33:50.116Z,4.10
2022-09-03T11:36:34.303Z,5.18
2022-09-03T11:39:01.336Z,5.13
2022-09-03T11:41:35.803Z,5.10
2022-09-03T11:44:18.963Z,4.88
2022-09-03T11:46:59.023Z,4.22
2022-09-03T11:49:30.236Z,5.93
2022-09-03T11:52:02.419Z,5.65
2022-09-03T11:54:33.166Z,6.53
2022-09-03T11:57:30.662Z,5.38
2022-09-03T12:00:13.525Z,6.10
2022-09-03T12:02:51.642Z,4.55
2022-09-03T12:05:41.176Z,4.90
2022-09-03T12:08:29.220Z,5.40
2022-09-03T12:11:20.718Z,5.00
2022-09-03T12:14:20.792Z,4.80
2022-09-03T12:16:59.303Z,4.28
2022-09-03T12:19:36.117Z,3.58
2022-09-03T12:22:05.521Z,4.20
2022-09-03T12:24:37.776Z,5.03
2022-09-03T12:27:05.407Z,5.05
2022-09-03T12:29:32.360Z,3.67
2022-09-03T12:32:08.622Z,3.78
2022-09-03T12:34:35.318Z,4.43
2022-09-03T12:37:02.262Z,3.80
2022-09-03T12:42:24.265Z,3.60
2022-09-03T12:44:50.946Z,4.10
2022-09-03T12:47:38.812Z,6.68
2022-09-03T12:50:10.932Z,3.22
2022-09-03T12:52:46.679Z,3.42
2022-09-03T12:55:33.297Z,3.58
2022-09-03T12:58:20.987Z,4.35
2022-09-03T13:00:56.439Z,3.50
2022-09-03T13:03:31.445Z,4.00
2022-09-03T13:06:10.681Z,4.22
2022-09-03T13:08:51.898Z,3.85
2022-09-03T13:11:21.770Z,4.47
2022-09-03T13:14:20.620Z,3.35
2022-09-03T13:16:47.425Z,3.47
2022-09-03T13:19:32.518Z,3.05
2022-09-03T13:22:25.349Z,3.40
2022-09-03T13:25:00.909Z,4.00
2022-09-03T13:27:47.084Z,3.53
2022-09-03T13:30:20.010Z,3.28
2022-09-03T13:33:09.517Z,3.42
2022-09-03T13:36:03.509Z,2.80
2022-09-03T13:38:57.566Z,3.20
2022-09-03T13:41:36.678Z,4.65
2022-09-03T13:44:16.742Z,2.97
2022-09-03T13:46:56.197Z,2.83
2022-09-03T13:49:47.679Z,3.15
2022-09-03T13:52:31.083Z,2.67
2022-09-03T13:55:03.956Z,2.75
2022-09-03T13:57:34.458Z,2.67
2022-09-03T14:00:13.478Z,3.17
2022-09-03T14:02:58.576Z,4.53
2022-09-03T14:05:57.572Z,3.40
2022-09-03T14:09:01.565Z,3.60
2022-09-03T14:11:51.225Z,3.50
2022-09-03T14:14:33.334Z,3.72
2022-09-03T14:17:02.016Z,3.22
2022-09-03T14:19:31.562Z,2.60
2022-09-03T14:22:15.440Z,2.97
2022-09-03T14:25:02.773Z,3.08
2022-09-03T14:27:31.529Z,2.75
2022-09-03T14:30:18.760Z,3.22
2022-09-03T14:32:51.337Z,2.97
2022-09-03T14:35:23.875Z,2.70
2022-09-03T14:37:50.477Z,3.22
2022-09-03T14:40:22.070Z,3.05
2022-09-03T14:43:24.212Z,2.75
2022-09-03T14:48:54.634Z,2.60
2022-09-03T14:51:26.831Z,2.80
2022-09-03T14:54:04.518Z,3.10
2022-09-03T14:57:17.970Z,3.03
2022-09-03T14:59:57.898Z,3.10
2022-09-03T15:02:24.472Z,3.47
2022-09-03T15:05:20.550Z,2.63
2022-09-03T15:08:01.629Z,3.35
2022-09-03T15:10:46.114Z,2.80
2022-09-03T15:13:30.936Z,3.42
2022-09-03T15:16:13.415Z,3.70
2022-09-03T15:21:34.232Z,4.47
2022-09-03T15:24:22.063Z,3.60
2022-09-03T15:27:10.275Z,4.70
2022-09-03T15:29:49.758Z,3.80
2022-09-03T15:32:35.529Z,4.43
2022-09-03T15:35:05.323Z,3.78
2022-09-03T15:37:47.640Z,3.80
2022-09-03T15:40:37.648Z,4.25
2022-09-03T15:43:15.736Z,4.03
2022-09-03T15:45:58.872Z,4.95
2022-09-03T15:48:39.308Z,6.72
2022-09-03T15:51:26.599Z,3.50
2022-09-03T15:54:07.778Z,4.50
2022-09-03T15:56:47.130Z,4.90
2022-09-03T15:59:19.635Z,4.43
2022-09-03T16:01:54.641Z,4.40
2022-09-03T16:04:39.085Z,4.60
2022-09-03T16:07:14.793Z,4.45
2022-09-03T16:10:01.947Z,4.05
2022-09-03T16:13:14.620Z,4.32
2022-09-03T16:15:50.380Z,4.68
2022-09-03T16:18:49.307Z,4.28
2022-09-03T16:21:44.360Z,4.60
2022-09-03T16:24:19.880Z,4.45
2022-09-03T16:26:52.073Z,5.10
2022-09-03T16:29:30.967Z,5.22
2022-09-03T16:32:03.590Z,4.50
2022-09-03T16:35:04.241Z,4.55
2022-09-03T16:37:34.688Z,4.43
2022-09-03T16:40:27.495Z,4.65
2022-09-03T16:43:39.462Z,5.22
2022-09-03T16:46:33.196Z,5.40
2022-09-03T16:49:21.957Z,5.60
2022-09-03T16:52:10.883Z,6.78
2022-09-03T16:55:36.345Z,9.10
2022-09-03T16:58:09.887Z,8.55
2022-09-03T17:01:06.944Z,6.25
2022-09-03T17:04:02.820Z,5.93
2022-09-03T17:06:50.826Z,5.75
2022-09-03T17:09:26.585Z,4.32
2022-09-03T17:12:13.984Z,4.53
2022-09-03T17:15:15.816Z,4.55
2022-09-03T17:17:49.536Z,4.72
2022-09-03T17:20:30.096Z,5.03
2022-09-03T17:23:09.882Z,4.43
2022-09-03T17:25:48.616Z,4.90
2022-09-03T17:28:51.756Z,4.80
2022-09-03T17:31:31.504Z,4.95
2022-09-03T17:34:17.272Z,4.57
2022-09-03T17:37:48.703Z,4.40
2022-09-03T17:40:33.627Z,4.97
2022-09-03T17:43:14.556Z,4.93
2022-09-03T17:46:19.026Z,4.95
2022-09-03T17:48:51.568Z,5.78
2022-09-03T17:51:33.403Z,6.63
2022-09-03T17:54:17.722Z,5.65
2022-09-03T17:57:13.176Z,5.32
2022-09-03T17:59:55.027Z,5.82
2022-09-03T18:02:29.149Z,8.25
2022-09-03T18:05:09.096Z,6.63
2022-09-03T18:08:03.331Z,9.15
2022-09-03T18:10:48.569Z,6.97
2022-09-03T18:13:50.574Z,5.80
2022-09-03T18:16:31.858Z,6.25
2022-09-03T18:19:30.778Z,5.75
2022-09-03T18:22:20.621Z,8.73
2022-09-03T18:25:13.686Z,6.13
2022-09-03T18:28:05.494Z,6.32
2022-09-03T18:30:52.910Z,6.68
2022-09-03T18:33:43.179Z,7.32
2022-09-03T18:36:29.848Z,7.53
2022-09-03T18:39:33.424Z,6.63
2022-09-03T18:42:47.031Z,6.38
2022-09-03T18:46:17.617Z,6.72
2022-09-03T18:48:46.641Z,7.57
2022-09-03T18:51:48.625Z,7.85
2022-09-03T18:55:06.729Z,9.25
2022-09-03T18:58:08.282Z,7.35
2022-09-03T19:04:13.864Z,7.43
2022-09-03T19:07:23.250Z,7.22
2022-09-03T19:10:26.798Z,7.05
2022-09-03T19:13:27.492Z,7.63
2022-09-03T19:16:23.464Z,6.80
2022-09-03T19:19:30.713Z,6.78
2022-09-03T19:22:27.889Z,7.82
2022-09-03T19:25:21.211Z,6.78
2022-09-03T19:28:21.249Z,7.50
2022-09-03T19:31:23.128Z,7.70
2022-09-03T19:35:13.236Z,6.80
2022-09-03T19:38:26.708Z,7.00
2022-09-03T19:41:15.139Z,7.00
2022-09-03T19:44:07.134Z,7.20
2022-09-03T19:46:55.318Z,7.13
2022-09-03T19:49:43.085Z,8.48
2022-09-03T19:52:45.460Z,7.00
2022-09-03T19:55:37.638Z,7.65
2022-09-03T19:58:42.106Z,8.40
2022-09-03T20:01:29.786Z,7.47
2022-09-03T20:04:19.488Z,8.60
2022-09-03T20:07:05.878Z,8.57
2022-09-03T20:09:58.561Z,7.82
2022-09-03T20:12:30.236Z,7.93
2022-09-03T20:14:56.950Z,7.35
2022-09-03T20:17:38.431Z,7.50
2022-09-03T20:20:38.586Z,7.03
2022-09-03T20:23:28.210Z,7.50
2022-09-03T20:26:11.071Z,8.27
2022-09-03T20:29:07.710Z,8.45
2022-09-03T20:31:55.241Z,8.13
2022-09-03T20:34:36.108Z,8.98
2022-09-03T20:37:24.937Z,8.85
2022-09-03T20:40:04.943Z,8.65
2022-09-03T20:42:57.676Z,8.65
2022-09-03T20:45:44.455Z,8.38
2022-09-03T20:48:32.215Z,11.35
2022-09-03T20:51:12.152Z,8.57
2022-09-03T20:54:21.200Z,8.73
2022-09-03T20:56:56.824Z,8.27
2022-09-03T20:59:32.580Z,8.10
2022-09-03T21:02:14.497Z,9.77
2022-09-03T21:05:06.296Z,8.07
2022-09-03T21:08:00.256Z,10.80
2022-09-03T21:10:36.916Z,10.40
2022-09-03T21:13:13.532Z,10.70
2022-09-03T21:16:09.723Z,10.00
2022-09-03T21:18:42.258Z,10.15
2022-09-03T21:21:11.945Z,12.52
2022-09-03T21:23:44.122Z,9.35
2022-09-03T21:26:17.160Z,8.70
2022-09-03T21:28:51.014Z,10.65
2022-09-03T21:31:31.991Z,9.27
2022-09-03T21:34:11.376Z,11.35
2022-09-03T21:36:41.675Z,10.07
2022-09-03T21:39:20.937Z,17.33
2022-09-03T21:42:14.042Z,13.45
2022-09-03T21:44:40.761Z,15.88
2022-09-03T21:47:15.976Z,10.15
2022-09-03T21:50:07.398Z,11.57
2022-09-03T21:52:44.648Z,9.60
2022-09-03T21:55:34.422Z,10.15
2022-09-03T21:58:16.414Z,11.45
2022-09-03T22:00:45.123Z,10.63
2022-09-03T22:03:13.441Z,9.05
2022-09-03T22:06:12.145Z,11.43
2022-09-03T22:08:49.195Z,10.68
2022-09-03T22:11:46.383Z,14.30
2022-09-03T22:14:16.538Z,11.95
2022-09-03T22:17:10.917Z,11.57
2022-09-03T22:19:40.285Z,16.70
2022-09-03T22:22:27.209Z,12.80
2022-09-03T22:25:29.881Z,12.15
2022-09-03T22:28:11.873Z,10.60
2022-09-03T22:30:53.850Z,14.00
2022-09-03T22:33:47.023Z,11.20
2022-09-03T22:36:19.808Z,14.70
2022-09-03T22:39:24.685Z,12.18
2022-09-03T22:42:12.768Z,9.48
2022-09-03T22:45:12.476Z,10.23
2022-09-03T22:48:00.528Z,10.32
2022-09-03T22:50:45.736Z,9.25
2022-09-03T22:53:36.478Z,10.43
2022-09-03T22:56:12.457Z,10.18
2022-09-03T22:58:57.300Z,9.68
2022-09-03T23:02:03.032Z,10.60
2022-09-03T23:04:37.124Z,10.65
2022-09-03T23:07:42.571Z,11.70
2022-09-03T23:10:14.614Z,11.27
2022-09-03T23:13:01.485Z,10.95
2022-09-03T23:15:30.578Z,11.68
2022-09-03T23:18:15.429Z,10.45
2022-09-03T23:20:48.829Z,10.73
2022-09-03T23:23:25.664Z,11.77
2022-09-03T23:26:17.636Z,12.95
2022-09-03T23:28:54.754Z,11.73
2022-09-03T23:31:25.005Z,11.32
2022-09-03T23:33:53.909Z,10.18
2022-09-03T23:37:32.494Z,10.32
2022-09-03T23:40:28.663Z,10.57
2022-09-03T23:43:13.572Z,11.13
2022-09-03T23:46:05.259Z,10.48
2022-09-03T23:48:40.862Z,11.02
2022-09-03T23:51:19.648Z,10.82
2022-09-03T23:53:52.564Z,11.30
2022-09-03T23:56:31.297Z,11.13
2022-09-03T23:59:35.706Z,11.25
